sensor_id;sensor_type;location;lat;lon;timestamp;pressure;altitude;pressure_sealevel;temperature;humidity
58761;BME280;44529;47.464;19.014;2022-08-01T00:01:07;100028.13;;;16.89;67.56
58761;BME280;44529;47.464;19.014;2022-08-01T00:04:09;100024.66;;;16.92;68.06
58761;BME280;44529;47.464;19.014;2022-08-01T00:07:12;100027.41;;;16.92;68.33
58761;BME280;44529;47.464;19.014;2022-08-01T00:10:15;100031.44;;;16.98;67.93
58761;BME280;44529;47.464;19.014;2022-08-01T00:13:18;100025.69;;;16.84;68.72
58761;BME280;44529;47.464;19.014;2022-08-01T00:16:20;100029.47;;;16.79;69.46
58761;BME280;44529;47.464;19.014;2022-08-01T00:19:24;100028.28;;;16.77;69.75
58761;BME280;44529;47.464;19.014;2022-08-01T00:22:26;100020.44;;;16.75;69.22
58761;BME280;44529;47.464;19.014;2022-08-01T00:25:29;100018.88;;;16.74;69.64
58761;BME280;44529;47.464;19.014;2022-08-01T00:28:35;100021.06;;;16.69;69.27
58761;BME280;44529;47.464;19.014;2022-08-01T00:31:37;100012.06;;;16.68;70.07
58761;BME280;44529;47.464;19.014;2022-08-01T00:34:40;100014.72;;;16.65;70.44
58761;BME280;44529;47.464;19.014;2022-08-01T00:37:42;100012.00;;;16.65;70.19
58761;BME280;44529;47.464;19.014;2022-08-01T00:40:46;100004.00;;;16.56;70.47
58761;BME280;44529;47.464;19.014;2022-08-01T00:43:48;100005.94;;;16.56;70.39
58761;BME280;44529;47.464;19.014;2022-08-01T00:46:50;100003.88;;;16.49;71.93
58761;BME280;44529;47.464;19.014;2022-08-01T00:49:53;99997.94;;;16.47;71.06
58761;BME280;44529;47.464;19.014;2022-08-01T00:52:55;100009.22;;;16.45;71.31
58761;BME280;44529;47.464;19.014;2022-08-01T00:55:59;99999.59;;;16.32;71.95
58761;BME280;44529;47.464;19.014;2022-08-01T00:59:03;100008.47;;;16.29;71.67
58761;BME280;44529;47.464;19.014;2022-08-01T01:02:05;99999.94;;;16.31;71.73
58761;BME280;44529;47.464;19.014;2022-08-01T01:05:17;100011.03;;;16.38;71.62
58761;BME280;44529;47.464;19.014;2022-08-01T01:08:24;100008.56;;;16.33;71.83
58761;BME280;44529;47.464;19.014;2022-08-01T01:11:33;99999.50;;;16.29;71.75
58761;BME280;44529;47.464;19.014;2022-08-01T01:14:44;100004.00;;;16.21;72.99
58761;BME280;44529;47.464;19.014;2022-08-01T01:17:53;100004.00;;;16.21;73.02
58761;BME280;44529;47.464;19.014;2022-08-01T01:24:58;100014.38;;;16.15;72.47
58761;BME280;44529;47.464;19.014;2022-08-01T01:31:19;100018.47;;;16.06;73.50
58761;BME280;44529;47.464;19.014;2022-08-01T01:34:23;100013.87;;;16.10;72.68
58761;BME280;44529;47.464;19.014;2022-08-01T01:37:27;100011.66;;;16.15;72.39
58761;BME280;44529;47.464;19.014;2022-08-01T01:40:30;99993.66;;;16.11;72.55
58761;BME280;44529;47.464;19.014;2022-08-01T01:43:34;99997.22;;;16.15;71.99
58761;BME280;44529;47.464;19.014;2022-08-01T01:46:37;100003.56;;;16.19;71.81
58761;BME280;44529;47.464;19.014;2022-08-01T01:49:41;99998.19;;;16.22;71.22
58761;BME280;44529;47.464;19.014;2022-08-01T01:52:45;99992.66;;;16.19;71.66
58761;BME280;44529;47.464;19.014;2022-08-01T01:55:52;99991.00;;;16.14;71.82
58761;BME280;44529;47.464;19.014;2022-08-01T01:58:57;99993.66;;;16.11;72.29
58761;BME280;44529;47.464;19.014;2022-08-01T02:02:03;99984.59;;;16.07;72.91
58761;BME280;44529;47.464;19.014;2022-08-01T02:05:10;99990.66;;;16.00;72.96
58761;BME280;44529;47.464;19.014;2022-08-01T02:08:14;99991.19;;;16.06;72.34
58761;BME280;44529;47.464;19.014;2022-08-01T02:11:19;99983.69;;;16.03;72.63
58761;BME280;44529;47.464;19.014;2022-08-01T02:14:22;99993.50;;;16.04;72.87
58761;BME280;44529;47.464;19.014;2022-08-01T02:17:26;99986.94;;;16.08;72.29
58761;BME280;44529;47.464;19.014;2022-08-01T02:20:30;99989.41;;;16.13;71.65
58761;BME280;44529;47.464;19.014;2022-08-01T02:23:34;99983.59;;;16.15;71.55
58761;BME280;44529;47.464;19.014;2022-08-01T02:26:39;99977.31;;;16.30;71.41
58761;BME280;44529;47.464;19.014;2022-08-01T02:29:53;99973.81;;;16.30;71.21
58761;BME280;44529;47.464;19.014;2022-08-01T02:33:04;99963.22;;;16.28;70.94
58761;BME280;44529;47.464;19.014;2022-08-01T02:36:18;99970.25;;;16.29;70.59
58761;BME280;44529;47.464;19.014;2022-08-01T02:39:35;99965.81;;;16.21;71.06
58761;BME280;44529;47.464;19.014;2022-08-01T02:42:41;99979.09;;;16.22;70.96
58761;BME280;44529;47.464;19.014;2022-08-01T02:45:53;99977.87;;;16.20;72.04
58761;BME280;44529;47.464;19.014;2022-08-01T02:48:58;99973.62;;;16.22;71.18
58761;BME280;44529;47.464;19.014;2022-08-01T02:52:05;99977.09;;;16.19;71.46
58761;BME280;44529;47.464;19.014;2022-08-01T02:55:11;99970.56;;;16.24;71.05
58761;BME280;44529;47.464;19.014;2022-08-01T02:58:15;99971.00;;;16.26;70.89
58761;BME280;44529;47.464;19.014;2022-08-01T03:01:20;99967.91;;;16.28;71.03
58761;BME280;44529;47.464;19.014;2022-08-01T03:04:28;99966.75;;;16.29;70.72
58761;BME280;44529;47.464;19.014;2022-08-01T03:07:31;99965.25;;;16.31;70.52
58761;BME280;44529;47.464;19.014;2022-08-01T03:10:42;99961.16;;;16.41;70.20
58761;BME280;44529;47.464;19.014;2022-08-01T03:13:47;99967.62;;;16.33;71.11
58761;BME280;44529;47.464;19.014;2022-08-01T03:16:51;99961.38;;;16.32;70.99
58761;BME280;44529;47.464;19.014;2022-08-01T03:19:55;99963.47;;;16.39;70.66
58761;BME280;44529;47.464;19.014;2022-08-01T03:23:01;99963.09;;;16.40;70.72
58761;BME280;44529;47.464;19.014;2022-08-01T03:26:05;99961.97;;;16.41;70.50
58761;BME280;44529;47.464;19.014;2022-08-01T03:29:16;99958.53;;;16.44;70.39
58761;BME280;44529;47.464;19.014;2022-08-01T03:32:19;99952.72;;;16.46;70.57
58761;BME280;44529;47.464;19.014;2022-08-01T03:35:26;99953.63;;;16.53;70.44
58761;BME280;44529;47.464;19.014;2022-08-01T03:38:35;99952.56;;;16.58;70.42
58761;BME280;44529;47.464;19.014;2022-08-01T03:41:42;99952.66;;;16.62;70.26
58761;BME280;44529;47.464;19.014;2022-08-01T03:44:51;99952.22;;;16.60;70.14
58761;BME280;44529;47.464;19.014;2022-08-01T03:48:09;99957.59;;;16.56;70.57
58761;BME280;44529;47.464;19.014;2022-08-01T03:51:13;99958.81;;;16.59;70.65
58761;BME280;44529;47.464;19.014;2022-08-01T03:54:21;99966.22;;;16.58;70.86
58761;BME280;44529;47.464;19.014;2022-08-01T03:57:24;99961.19;;;16.60;71.16
58761;BME280;44529;47.464;19.014;2022-08-01T04:00:38;99963.06;;;16.56;70.85
58761;BME280;44529;47.464;19.014;2022-08-01T04:03:42;99972.03;;;16.57;71.34
58761;BME280;44529;47.464;19.014;2022-08-01T04:06:46;99973.75;;;16.65;70.96
58761;BME280;44529;47.464;19.014;2022-08-01T04:09:50;99976.41;;;16.61;71.00
58761;BME280;44529;47.464;19.014;2022-08-01T04:12:52;99982.75;;;16.65;71.23
58761;BME280;44529;47.464;19.014;2022-08-01T04:15:55;99992.09;;;16.64;71.46
58761;BME280;44529;47.464;19.014;2022-08-01T04:18:57;99985.41;;;16.62;71.73
58761;BME280;44529;47.464;19.014;2022-08-01T04:22:00;99983.91;;;16.64;72.58
58761;BME280;44529;47.464;19.014;2022-08-01T04:25:06;99993.47;;;16.74;72.78
58761;BME280;44529;47.464;19.014;2022-08-01T04:28:10;99985.28;;;16.74;72.09
58761;BME280;44529;47.464;19.014;2022-08-01T04:31:18;99990.41;;;16.75;72.49
58761;BME280;44529;47.464;19.014;2022-08-01T04:34:22;99987.44;;;16.84;72.12
58761;BME280;44529;47.464;19.014;2022-08-01T04:37:27;99988.47;;;16.95;71.96
58761;BME280;44529;47.464;19.014;2022-08-01T04:40:32;99990.16;;;17.03;72.07
58761;BME280;44529;47.464;19.014;2022-08-01T04:43:37;99986.00;;;17.10;71.73
58761;BME280;44529;47.464;19.014;2022-08-01T04:46:40;99978.66;;;17.14;71.80
58761;BME280;44529;47.464;19.014;2022-08-01T04:49:43;99979.94;;;17.20;72.53
58761;BME280;44529;47.464;19.014;2022-08-01T04:52:50;99987.13;;;17.28;71.81
58761;BME280;44529;47.464;19.014;2022-08-01T04:55:53;99978.25;;;17.35;71.71
58761;BME280;44529;47.464;19.014;2022-08-01T04:58:56;99983.09;;;17.45;71.80
58761;BME280;44529;47.464;19.014;2022-08-01T05:02:36;99986.78;;;17.52;70.55
58761;BME280;44529;47.464;19.014;2022-08-01T05:05:39;99984.22;;;17.63;70.22
58761;BME280;44529;47.464;19.014;2022-08-01T05:08:42;99986.37;;;17.73;70.29
58761;BME280;44529;47.464;19.014;2022-08-01T05:11:44;99985.69;;;17.80;70.99
58761;BME280;44529;47.464;19.014;2022-08-01T05:14:46;99980.34;;;17.87;70.01
58761;BME280;44529;47.464;19.014;2022-08-01T05:17:49;99977.34;;;17.96;69.41
58761;BME280;44529;47.464;19.014;2022-08-01T05:20:51;99984.53;;;18.04;69.36
58761;BME280;44529;47.464;19.014;2022-08-01T05:23:53;99984.25;;;18.12;70.34
58761;BME280;44529;47.464;19.014;2022-08-01T05:26:57;99985.53;;;18.22;69.09
58761;BME280;44529;47.464;19.014;2022-08-01T05:29:59;99981.78;;;18.30;69.06
58761;BME280;44529;47.464;19.014;2022-08-01T05:33:01;99987.44;;;18.45;68.67
58761;BME280;44529;47.464;19.014;2022-08-01T05:36:04;99981.66;;;18.53;68.61
58761;BME280;44529;47.464;19.014;2022-08-01T05:39:06;99984.50;;;18.60;68.68
58761;BME280;44529;47.464;19.014;2022-08-01T05:42:09;99984.63;;;18.67;68.68
58761;BME280;44529;47.464;19.014;2022-08-01T05:45:11;99985.06;;;18.70;68.44
58761;BME280;44529;47.464;19.014;2022-08-01T05:48:13;99984.28;;;18.73;68.80
58761;BME280;44529;47.464;19.014;2022-08-01T05:51:16;99985.53;;;18.75;69.52
58761;BME280;44529;47.464;19.014;2022-08-01T05:54:18;99985.53;;;18.79;68.95
58761;BME280;44529;47.464;19.014;2022-08-01T05:57:20;99981.38;;;18.88;67.94
58761;BME280;44529;47.464;19.014;2022-08-01T06:00:23;99986.94;;;18.99;67.44
58761;BME280;44529;47.464;19.014;2022-08-01T06:03:26;99988.25;;;19.09;67.53
58761;BME280;44529;47.464;19.014;2022-08-01T06:06:28;99990.28;;;19.15;68.10
58761;BME280;44529;47.464;19.014;2022-08-01T06:09:31;99994.63;;;19.20;66.79
58761;BME280;44529;47.464;19.014;2022-08-01T06:12:34;99984.53;;;19.28;66.71
58761;BME280;44529;47.464;19.014;2022-08-01T06:15:37;100000.28;;;19.38;66.24
58761;BME280;44529;47.464;19.014;2022-08-01T06:18:39;99999.22;;;19.46;65.03
58761;BME280;44529;47.464;19.014;2022-08-01T06:21:41;99989.09;;;19.57;63.91
58761;BME280;44529;47.464;19.014;2022-08-01T06:24:43;99988.84;;;19.66;63.24
58761;BME280;44529;47.464;19.014;2022-08-01T06:27:46;99993.59;;;19.72;62.68
58761;BME280;44529;47.464;19.014;2022-08-01T06:30:48;99996.84;;;19.85;62.71
58761;BME280;44529;47.464;19.014;2022-08-01T06:33:50;99999.25;;;19.94;62.73
58761;BME280;44529;47.464;19.014;2022-08-01T06:36:53;99988.75;;;20.07;61.93
58761;BME280;44529;47.464;19.014;2022-08-01T06:39:55;99999.47;;;20.22;61.00
58761;BME280;44529;47.464;19.014;2022-08-01T06:42:58;100001.22;;;20.48;59.60
58761;BME280;44529;47.464;19.014;2022-08-01T06:46:00;100001.31;;;20.70;59.15
58761;BME280;44529;47.464;19.014;2022-08-01T06:49:03;100010.84;;;20.94;57.51
58761;BME280;44529;47.464;19.014;2022-08-01T06:52:05;100009.31;;;21.07;56.90
58761;BME280;44529;47.464;19.014;2022-08-01T06:55:09;100005.78;;;21.17;57.11
58761;BME280;44529;47.464;19.014;2022-08-01T06:58:11;100003.13;;;21.35;57.32
58761;BME280;44529;47.464;19.014;2022-08-01T07:01:13;99998.41;;;21.43;57.80
58761;BME280;44529;47.464;19.014;2022-08-01T07:04:16;100001.56;;;21.52;57.34
58761;BME280;44529;47.464;19.014;2022-08-01T07:07:18;99996.06;;;21.62;57.22
58761;BME280;44529;47.464;19.014;2022-08-01T07:10:21;100004.34;;;21.73;55.67
58761;BME280;44529;47.464;19.014;2022-08-01T07:13:23;99990.97;;;21.86;53.02
58761;BME280;44529;47.464;19.014;2022-08-01T07:16:45;99982.69;;;22.04;48.96
58761;BME280;44529;47.464;19.014;2022-08-01T07:19:48;99985.44;;;22.22;46.81
58761;BME280;44529;47.464;19.014;2022-08-01T07:22:50;99988.91;;;22.47;45.83
58761;BME280;44529;47.464;19.014;2022-08-01T07:25:52;99979.38;;;22.73;44.28
58761;BME280;44529;47.464;19.014;2022-08-01T07:28:59;99993.41;;;23.11;43.32
58761;BME280;44529;47.464;19.014;2022-08-01T07:32:01;99986.84;;;23.49;42.71
58761;BME280;44529;47.464;19.014;2022-08-01T07:35:04;99989.78;;;23.84;43.07
58761;BME280;44529;47.464;19.014;2022-08-01T07:38:07;99992.25;;;24.16;41.00
58761;BME280;44529;47.464;19.014;2022-08-01T07:41:14;100002.56;;;24.49;40.46
58761;BME280;44529;47.464;19.014;2022-08-01T07:44:17;99996.16;;;24.90;40.57
58761;BME280;44529;47.464;19.014;2022-08-01T07:47:24;99994.75;;;25.36;40.86
58761;BME280;44529;47.464;19.014;2022-08-01T07:50:26;99992.19;;;25.76;37.72
58761;BME280;44529;47.464;19.014;2022-08-01T07:53:36;99992.44;;;26.08;36.68
58761;BME280;44529;47.464;19.014;2022-08-01T07:56:38;99993.44;;;26.38;36.35
58761;BME280;44529;47.464;19.014;2022-08-01T07:59:40;99987.59;;;26.56;37.25
58761;BME280;44529;47.464;19.014;2022-08-01T08:02:43;99984.59;;;27.06;35.88
58761;BME280;44529;47.464;19.014;2022-08-01T08:05:46;99972.75;;;27.38;35.64
58761;BME280;44529;47.464;19.014;2022-08-01T08:09:01;99989.91;;;27.33;35.20
58761;BME280;44529;47.464;19.014;2022-08-01T08:12:04;99991.81;;;27.00;35.47
58761;BME280;44529;47.464;19.014;2022-08-01T08:15:07;99987.50;;;26.79;36.42
58761;BME280;44529;47.464;19.014;2022-08-01T08:18:10;99992.22;;;26.62;35.84
58761;BME280;44529;47.464;19.014;2022-08-01T08:21:12;99991.44;;;26.62;35.90
58761;BME280;44529;47.464;19.014;2022-08-01T08:24:14;100002.28;;;26.53;36.30
58761;BME280;44529;47.464;19.014;2022-08-01T08:27:28;99999.88;;;26.35;35.50
58761;BME280;44529;47.464;19.014;2022-08-01T08:30:30;100006.44;;;26.21;37.02
58761;BME280;44529;47.464;19.014;2022-08-01T08:33:32;100017.25;;;26.15;36.55
58761;BME280;44529;47.464;19.014;2022-08-01T08:36:35;100018.97;;;26.06;35.68
58761;BME280;44529;47.464;19.014;2022-08-01T08:39:39;100029.41;;;25.98;36.13
58761;BME280;44529;47.464;19.014;2022-08-01T08:42:44;100036.03;;;25.81;35.44
58761;BME280;44529;47.464;19.014;2022-08-01T08:45:48;100031.41;;;25.71;35.62
58761;BME280;44529;47.464;19.014;2022-08-01T08:49:02;100034.78;;;25.58;35.53
58761;BME280;44529;47.464;19.014;2022-08-01T08:52:07;100031.25;;;25.54;36.02
58761;BME280;44529;47.464;19.014;2022-08-01T08:55:12;100041.56;;;25.54;37.19
58761;BME280;44529;47.464;19.014;2022-08-01T08:58:17;100038.03;;;25.50;37.19
58761;BME280;44529;47.464;19.014;2022-08-01T09:01:20;100035.25;;;25.53;36.15
58761;BME280;44529;47.464;19.014;2022-08-01T09:04:24;100036.87;;;25.51;36.81
58761;BME280;44529;47.464;19.014;2022-08-01T09:07:28;100034.09;;;25.51;35.66
58761;BME280;44529;47.464;19.014;2022-08-01T09:10:30;100029.69;;;25.53;35.77
58761;BME280;44529;47.464;19.014;2022-08-01T09:13:33;100041.91;;;25.56;36.23
58761;BME280;44529;47.464;19.014;2022-08-01T09:16:40;100027.59;;;25.61;34.13
58761;BME280;44529;47.464;19.014;2022-08-01T09:19:52;100022.38;;;25.66;34.75
58761;BME280;44529;47.464;19.014;2022-08-01T09:22:55;100020.19;;;25.81;34.96
58761;BME280;44529;47.464;19.014;2022-08-01T09:25:58;100021.88;;;25.99;35.24
58761;BME280;44529;47.464;19.014;2022-08-01T09:29:03;100027.47;;;25.95;36.05
58761;BME280;44529;47.464;19.014;2022-08-01T09:32:07;100028.38;;;25.88;36.71
58761;BME280;44529;47.464;19.014;2022-08-01T09:35:31;100031.09;;;25.92;37.42
58761;BME280;44529;47.464;19.014;2022-08-01T09:38:45;100023.72;;;25.82;37.58
58761;BME280;44529;47.464;19.014;2022-08-01T09:41:54;100027.00;;;25.77;38.28
58761;BME280;44529;47.464;19.014;2022-08-01T09:44:57;100028.03;;;25.86;38.77
58761;BME280;44529;47.464;19.014;2022-08-01T09:48:06;100018.81;;;25.93;38.39
58761;BME280;44529;47.464;19.014;2022-08-01T09:51:12;100023.28;;;26.10;39.34
58761;BME280;44529;47.464;19.014;2022-08-01T09:54:34;100026.22;;;26.23;39.42
58761;BME280;44529;47.464;19.014;2022-08-01T09:57:37;100021.31;;;26.31;38.51
58761;BME280;44529;47.464;19.014;2022-08-01T10:00:40;100019.56;;;26.40;37.85
58761;BME280;44529;47.464;19.014;2022-08-01T10:03:49;100026.13;;;26.50;38.22
58761;BME280;44529;47.464;19.014;2022-08-01T10:07:07;100028.41;;;26.55;38.61
58761;BME280;44529;47.464;19.014;2022-08-01T10:10:12;100019.59;;;26.60;37.01
58761;BME280;44529;47.464;19.014;2022-08-01T10:13:15;100032.03;;;26.52;38.16
58761;BME280;44529;47.464;19.014;2022-08-01T10:16:18;100023.94;;;26.61;37.94
58761;BME280;44529;47.464;19.014;2022-08-01T10:19:23;100023.78;;;26.68;37.43
58761;BME280;44529;47.464;19.014;2022-08-01T10:22:27;100024.50;;;26.72;36.84
58761;BME280;44529;47.464;19.014;2022-08-01T10:25:36;100021.59;;;26.80;37.54
58761;BME280;44529;47.464;19.014;2022-08-01T10:28:48;100020.41;;;26.97;37.48
58761;BME280;44529;47.464;19.014;2022-08-01T10:31:52;100020.94;;;27.12;37.39
58761;BME280;44529;47.464;19.014;2022-08-01T10:35:02;100023.75;;;27.28;36.91
58761;BME280;44529;47.464;19.014;2022-08-01T10:38:08;100018.84;;;27.52;36.86
58761;BME280;44529;47.464;19.014;2022-08-01T10:41:15;100012.09;;;27.69;36.76
58761;BME280;44529;47.464;19.014;2022-08-01T10:44:17;100006.81;;;27.91;35.73
58761;BME280;44529;47.464;19.014;2022-08-01T10:47:34;100001.25;;;28.20;35.41
58761;BME280;44529;47.464;19.014;2022-08-01T10:50:52;99997.97;;;28.25;34.54
58761;BME280;44529;47.464;19.014;2022-08-01T10:53:56;99999.97;;;28.25;34.54
58761;BME280;44529;47.464;19.014;2022-08-01T10:57:01;99999.22;;;28.08;34.61
58761;BME280;44529;47.464;19.014;2022-08-01T11:00:05;100002.50;;;28.19;34.56
58761;BME280;44529;47.464;19.014;2022-08-01T11:03:08;99998.66;;;28.29;34.94
58761;BME280;44529;47.464;19.014;2022-08-01T11:06:20;99991.66;;;28.54;35.61
58761;BME280;44529;47.464;19.014;2022-08-01T11:09:30;99990.53;;;28.93;34.75
58761;BME280;44529;47.464;19.014;2022-08-01T11:12:40;99983.97;;;29.00;34.32
58761;BME280;44529;47.464;19.014;2022-08-01T11:15:44;99983.47;;;28.88;33.51
58761;BME280;44529;47.464;19.014;2022-08-01T11:18:51;99986.41;;;28.98;34.40
58761;BME280;44529;47.464;19.014;2022-08-01T11:25:03;99977.69;;;28.83;34.69
58761;BME280;44529;47.464;19.014;2022-08-01T11:31:31;99980.31;;;28.61;35.21
58761;BME280;44529;47.464;19.014;2022-08-01T11:34:55;99987.84;;;28.48;36.17
58761;BME280;44529;47.464;19.014;2022-08-01T11:38:24;99978.59;;;28.51;35.92
58761;BME280;44529;47.464;19.014;2022-08-01T11:41:34;99977.00;;;28.37;36.50
58761;BME280;44529;47.464;19.014;2022-08-01T11:44:49;99977.38;;;28.52;36.07
58761;BME280;44529;47.464;19.014;2022-08-01T11:47:53;99975.59;;;28.87;33.92
58761;BME280;44529;47.464;19.014;2022-08-01T11:50:56;99972.03;;;28.86;34.43
58761;BME280;44529;47.464;19.014;2022-08-01T11:54:03;99974.78;;;28.74;33.23
58761;BME280;44529;47.464;19.014;2022-08-01T11:57:08;99976.94;;;28.41;33.65
58761;BME280;44529;47.464;19.014;2022-08-01T12:00:14;99981.56;;;28.31;34.35
58761;BME280;44529;47.464;19.014;2022-08-01T12:03:31;99973.78;;;28.39;35.10
58761;BME280;44529;47.464;19.014;2022-08-01T12:06:35;99976.53;;;28.55;35.02
58761;BME280;44529;47.464;19.014;2022-08-01T12:09:38;99964.75;;;28.76;35.04
58761;BME280;44529;47.464;19.014;2022-08-01T12:12:45;99969.13;;;28.90;33.70
58761;BME280;44529;47.464;19.014;2022-08-01T12:15:48;99964.03;;;29.01;33.78
58761;BME280;44529;47.464;19.014;2022-08-01T12:18:57;99963.75;;;28.83;34.69
58761;BME280;44529;47.464;19.014;2022-08-01T12:22:10;99970.22;;;28.67;34.66
58761;BME280;44529;47.464;19.014;2022-08-01T12:25:15;99972.88;;;28.71;33.94
58761;BME280;44529;47.464;19.014;2022-08-01T12:28:17;99963.97;;;28.76;33.85
58761;BME280;44529;47.464;19.014;2022-08-01T12:31:31;99978.66;;;28.64;35.29
58761;BME280;44529;47.464;19.014;2022-08-01T12:34:33;99977.00;;;28.66;34.40
58761;BME280;44529;47.464;19.014;2022-08-01T12:37:44;99980.66;;;28.63;33.26
58761;BME280;44529;47.464;19.014;2022-08-01T12:40:47;99967.88;;;28.78;33.27
58761;BME280;44529;47.464;19.014;2022-08-01T12:43:54;99967.50;;;28.93;33.21
58761;BME280;44529;47.464;19.014;2022-08-01T12:46:57;99973.78;;;28.80;32.48
58761;BME280;44529;47.464;19.014;2022-08-01T12:49:59;99955.06;;;28.68;32.74
58761;BME280;44529;47.464;19.014;2022-08-01T12:53:02;99956.16;;;28.71;32.88
58761;BME280;44529;47.464;19.014;2022-08-01T12:56:04;99957.53;;;28.79;32.36
58761;BME280;44529;47.464;19.014;2022-08-01T12:59:21;99962.97;;;28.70;32.90
58761;BME280;44529;47.464;19.014;2022-08-01T13:02:31;99959.41;;;28.69;33.81
58761;BME280;44529;47.464;19.014;2022-08-01T13:08:50;99959.09;;;28.80;33.42
58761;BME280;44529;47.464;19.014;2022-08-01T13:11:53;99950.75;;;28.80;33.01
58761;BME280;44529;47.464;19.014;2022-08-01T13:15:23;99964.25;;;28.94;33.17
58761;BME280;44529;47.464;19.014;2022-08-01T13:21:29;99943.78;;;29.01;34.28
58761;BME280;44529;47.464;19.014;2022-08-01T13:24:52;99938.44;;;29.06;34.14
58761;BME280;44529;47.464;19.014;2022-08-01T13:28:17;99936.28;;;28.98;33.95
58761;BME280;44529;47.464;19.014;2022-08-01T13:31:32;99929.41;;;29.15;34.70
58761;BME280;44529;47.464;19.014;2022-08-01T13:34:34;99922.03;;;29.21;34.58
58761;BME280;44529;47.464;19.014;2022-08-01T13:37:39;99928.28;;;29.25;34.82
58761;BME280;44529;47.464;19.014;2022-08-01T13:40:41;99930.41;;;29.21;34.73
58761;BME280;44529;47.464;19.014;2022-08-01T13:43:43;99936.41;;;29.32;34.28
58761;BME280;44529;47.464;19.014;2022-08-01T13:47:02;99928.72;;;29.11;34.22
58761;BME280;44529;47.464;19.014;2022-08-01T13:50:17;99932.87;;;29.06;34.14
58761;BME280;44529;47.464;19.014;2022-08-01T13:53:20;99929.06;;;29.00;34.46
58761;BME280;44529;47.464;19.014;2022-08-01T13:56:23;99925.56;;;28.83;35.19
58761;BME280;44529;47.464;19.014;2022-08-01T13:59:26;99932.03;;;28.80;35.71
58761;BME280;44529;47.464;19.014;2022-08-01T14:02:28;99927.72;;;28.79;36.30
58761;BME280;44529;47.464;19.014;2022-08-01T14:05:31;99929.12;;;28.71;36.29
58761;BME280;44529;47.464;19.014;2022-08-01T14:08:33;99928.31;;;28.58;36.67
58761;BME280;44529;47.464;19.014;2022-08-01T14:11:36;99929.75;;;28.50;37.45
58761;BME280;44529;47.464;19.014;2022-08-01T14:14:38;99933.91;;;28.71;36.56
58761;BME280;44529;47.464;19.014;2022-08-01T14:17:41;99931.69;;;28.78;36.04
58761;BME280;44529;47.464;19.014;2022-08-01T14:20:49;99924.50;;;28.94;35.90
58761;BME280;44529;47.464;19.014;2022-08-01T14:23:55;99932.50;;;28.92;35.17
58761;BME280;44529;47.464;19.014;2022-08-01T14:26:57;99934.47;;;28.78;34.98
58761;BME280;44529;47.464;19.014;2022-08-01T14:29:59;99928.03;;;28.81;34.79
58761;BME280;44529;47.464;19.014;2022-08-01T14:33:04;99936.59;;;28.74;34.78
58761;BME280;44529;47.464;19.014;2022-08-01T14:36:07;99929.81;;;28.75;34.42
58761;BME280;44529;47.464;19.014;2022-08-01T14:39:29;99937.25;;;28.91;34.50
58761;BME280;44529;47.464;19.014;2022-08-01T14:42:32;99938.44;;;29.06;34.22
58761;BME280;44529;47.464;19.014;2022-08-01T14:45:34;99931.19;;;28.96;34.31
58761;BME280;44529;47.464;19.014;2022-08-01T14:48:37;99928.28;;;29.00;34.77
58761;BME280;44529;47.464;19.014;2022-08-01T14:51:39;99937.66;;;29.06;34.41
58761;BME280;44529;47.464;19.014;2022-08-01T14:54:41;99932.19;;;29.02;34.61
58761;BME280;44529;47.464;19.014;2022-08-01T14:57:44;99931.09;;;29.00;34.74
58761;BME280;44529;47.464;19.014;2022-08-01T15:00:46;99921.03;;;29.02;34.36
58761;BME280;44529;47.464;19.014;2022-08-01T15:03:48;99928.28;;;29.00;34.91
58761;BME280;44529;47.464;19.014;2022-08-01T15:06:52;99927.38;;;29.03;35.14
58761;BME280;44529;47.464;19.014;2022-08-01T15:09:54;99922.19;;;29.05;35.52
58761;BME280;44529;47.464;19.014;2022-08-01T15:12:58;99924.28;;;29.01;36.07
58761;BME280;44529;47.464;19.014;2022-08-01T15:16:01;99925.16;;;28.98;36.38
58761;BME280;44529;47.464;19.014;2022-08-01T15:19:04;99918.94;;;28.94;36.37
58761;BME280;44529;47.464;19.014;2022-08-01T15:22:06;99921.94;;;28.99;36.19
58761;BME280;44529;47.464;19.014;2022-08-01T15:25:09;99930.84;;;28.94;36.53
58761;BME280;44529;47.464;19.014;2022-08-01T15:28:11;99926.94;;;28.92;36.81
58761;BME280;44529;47.464;19.014;2022-08-01T15:31:14;99926.75;;;28.99;36.32
58761;BME280;44529;47.464;19.014;2022-08-01T15:34:16;99932.97;;;29.03;36.23
58761;BME280;44529;47.464;19.014;2022-08-01T15:37:19;99931.84;;;29.00;35.95
58761;BME280;44529;47.464;19.014;2022-08-01T15:40:21;99927.63;;;28.96;35.82
58761;BME280;44529;47.464;19.014;2022-08-01T15:43:24;99925.56;;;28.83;35.49
58761;BME280;44529;47.464;19.014;2022-08-01T15:46:28;99929.50;;;28.86;35.32
58761;BME280;44529;47.464;19.014;2022-08-01T15:49:31;99933.06;;;28.86;35.24
58761;BME280;44529;47.464;19.014;2022-08-01T15:52:33;99922.56;;;28.78;35.25
58761;BME280;44529;47.464;19.014;2022-08-01T15:55:37;99926.81;;;28.82;35.62
58761;BME280;44529;47.464;19.014;2022-08-01T15:58:39;99935.06;;;28.86;35.47
58761;BME280;44529;47.464;19.014;2022-08-01T16:01:42;99927.59;;;28.83;35.69
58761;BME280;44529;47.464;19.014;2022-08-01T16:04:44;99921.78;;;28.77;35.51
58761;BME280;44529;47.464;19.014;2022-08-01T16:07:46;99922.00;;;28.83;35.73
58761;BME280;44529;47.464;19.014;2022-08-01T16:11:03;99930.38;;;28.83;35.75
58761;BME280;44529;47.464;19.014;2022-08-01T16:14:05;99930.69;;;28.72;36.59
58761;BME280;44529;47.464;19.014;2022-08-01T16:17:08;99932.56;;;28.63;36.24
58761;BME280;44529;47.464;19.014;2022-08-01T16:20:10;99932.03;;;28.68;36.45
58761;BME280;44529;47.464;19.014;2022-08-01T16:23:13;99929.53;;;28.57;36.47
58761;BME280;44529;47.464;19.014;2022-08-01T16:26:19;99931.87;;;28.58;36.55